Time;durP1;ratioP1;P1;durP2;ratioP2;P2;SDS_P1;SDS_P2;PMS_P1;PMS_P2;Temp;Humidity;BMP_temperature;BMP_pressure;BME280_temperature;BME280_humidity;BME280_pressure;Samples;Min_cycle;Max_cycle;Signal;HPM_P1;HPM_P2
2022/05/27 00:02:17;;;;;;;10.80;9.63;;;14.00;99.90;;;;;;5226997;28;20437;-54
2022/05/27 00:04:47;;;;;;;11.03;9.93;;;14.00;99.90;;;;;;5216329;28;20197;-55
2022/05/27 00:07:18;;;;;;;14.90;10.23;;;14.00;99.90;;;;;;5212727;28;20593;-53
2022/05/27 00:09:48;;;;;;;17.63;10.43;;;13.90;99.90;;;;;;5199960;28;20242;-55
2022/05/27 00:12:20;;;;;;;21.13;14.67;;;13.90;99.90;;;;;;5198687;28;20191;-55
2022/05/27 00:14:51;;;;;;;24.30;14.23;;;13.90;99.90;;;;;;5213868;28;20236;-56
2022/05/27 00:17:22;;;;;;;24.70;15.50;;;13.90;99.90;;;;;;5206113;28;20925;-55
2022/05/27 00:19:53;;;;;;;22.90;15.60;;;13.90;99.90;;;;;;5221262;28;20203;-56
2022/05/27 00:22:23;;;;;;;27.27;15.20;;;13.90;99.90;;;;;;5200481;28;20242;-54
2022/05/27 00:24:54;;;;;;;15.10;13.50;;;13.90;99.90;;;;;;5210734;28;20182;-54
2022/05/27 00:27:25;;;;;;;22.57;14.20;;;13.90;99.90;;;;;;5212345;28;20207;-55
2022/05/27 00:29:55;;;;;;;20.57;15.07;;;13.90;99.90;;;;;;5212415;28;20402;-54
2022/05/27 00:32:26;;;;;;;16.30;12.70;;;13.90;99.90;;;;;;5217444;28;20186;-55
2022/05/27 00:34:56;;;;;;;16.77;12.60;;;13.90;99.90;;;;;;5215696;28;20553;-56
2022/05/27 00:37:27;;;;;;;18.90;14.63;;;13.90;99.90;;;;;;5220577;28;20566;-55
2022/05/27 00:39:57;;;;;;;17.90;14.60;;;13.90;99.90;;;;;;5213068;28;20218;-54
2022/05/27 00:42:28;;;;;;;19.53;13.30;;;13.90;99.90;;;;;;5206350;28;20187;-55
2022/05/27 00:44:58;;;;;;;14.30;12.40;;;13.90;99.90;;;;;;5217587;28;20185;-56
2022/05/27 00:47:32;;;;;;;19.97;11.23;;;13.90;99.90;;;;;;5211470;28;20199;-55
2022/05/27 00:50:08;;;;;;;15.63;10.50;;;13.90;99.90;;;;;;5216787;28;20360;-55
2022/05/27 00:52:42;;;;;;;16.13;11.03;;;13.90;99.90;;;;;;5210296;28;20429;-55
2022/05/27 00:55:20;;;;;;;11.43;10.30;;;13.80;99.90;;;;;;5223880;28;20436;-54
2022/05/27 00:58:01;;;;;;;18.53;11.10;;;13.90;99.90;;;;;;5218480;28;20463;-56
2022/05/27 01:00:32;;;;;;;11.87;10.67;;;13.90;99.90;;;;;;5206188;28;20612;-54
2022/05/27 01:03:04;;;;;;;10.63;9.37;;;13.90;99.90;;;;;;5215283;28;20791;-56
2022/05/27 01:05:34;;;;;;;12.20;9.33;;;13.90;99.90;;;;;;5217917;28;20831;-56
2022/05/27 01:08:08;;;;;;;10.87;9.83;;;13.90;99.90;;;;;;5214861;28;20469;-59
2022/05/27 01:11:16;;;;;;;10.47;9.37;;;14.00;99.90;;;;;;5210997;28;20183;-55
2022/05/27 01:14:04;;;;;;;12.60;9.43;;;13.90;99.90;;;;;;5195136;28;20434;-56
2022/05/27 01:17:06;;;;;;;11.03;9.60;;;13.90;99.90;;;;;;5208405;28;20434;-55
2022/05/27 01:23:23;;;;;;;11.03;9.77;;;13.90;99.90;;;;;;5220138;28;20468;-55
2022/05/27 01:26:44;;;;;;;10.80;9.27;;;13.90;99.90;;;;;;5215449;28;20941;-55
2022/05/27 01:29:45;;;;;;;10.97;9.87;;;14.00;99.90;;;;;;5180564;28;20513;-55
2022/05/27 01:32:25;;;;;;;12.40;10.30;;;14.00;99.90;;;;;;5206853;28;20428;-55
2022/05/27 01:35:07;;;;;;;12.97;10.60;;;14.00;99.90;;;;;;5202422;28;20459;-54
2022/05/27 01:37:54;;;;;;;14.70;12.57;;;14.00;99.90;;;;;;5223470;28;20444;-55
2022/05/27 01:40:33;;;;;;;15.13;12.47;;;14.00;99.90;;;;;;5190690;28;20501;-55
2022/05/27 01:43:22;;;;;;;14.30;10.93;;;14.00;99.90;;;;;;5214257;28;20540;-53
2022/05/27 01:46:00;;;;;;;15.07;11.57;;;14.00;99.90;;;;;;5202529;28;20518;-56
2022/05/27 01:48:38;;;;;;;17.07;13.40;;;13.90;99.90;;;;;;5203330;28;20465;-54
2022/05/27 01:51:30;;;;;;;16.07;14.07;;;13.90;99.90;;;;;;5205576;28;20438;-54
2022/05/27 01:54:08;;;;;;;16.43;13.53;;;13.90;99.90;;;;;;5217851;28;20932;-54
2022/05/27 01:56:51;;;;;;;15.50;13.07;;;14.00;99.90;;;;;;5227421;28;20413;-55
2022/05/27 01:59:31;;;;;;;13.93;12.53;;;13.90;99.90;;;;;;5222213;28;20528;-55
2022/05/27 02:02:11;;;;;;;17.83;14.27;;;13.90;99.90;;;;;;5210283;28;20473;-55
2022/05/27 02:04:47;;;;;;;16.80;13.80;;;13.90;99.90;;;;;;5211778;28;20432;-54
2022/05/27 02:07:28;;;;;;;17.03;13.57;;;13.90;99.90;;;;;;5215718;28;20461;-54
2022/05/27 02:10:03;;;;;;;23.90;14.30;;;13.90;99.90;;;;;;5213164;28;20454;-54
2022/05/27 02:12:44;;;;;;;16.23;14.63;;;13.90;99.90;;;;;;5207915;28;20432;-55
2022/05/27 02:15:20;;;;;;;19.33;14.67;;;13.90;99.90;;;;;;5219400;28;20431;-55
2022/05/27 02:17:58;;;;;;;18.03;13.50;;;13.90;99.90;;;;;;5224589;28;20429;-54
2022/05/27 02:20:34;;;;;;;16.37;12.53;;;13.90;99.90;;;;;;5211215;28;20409;-56
2022/05/27 02:23:37;;;;;;;25.17;13.60;;;13.90;99.90;;;;;;5199191;28;20489;-55
2022/05/27 02:26:14;;;;;;;20.00;14.43;;;13.90;99.90;;;;;;5185731;28;20443;-54
2022/05/27 02:28:53;;;;;;;15.73;13.20;;;13.90;99.90;;;;;;5224851;28;20485;-55
2022/05/27 02:31:28;;;;;;;16.07;13.40;;;13.90;99.90;;;;;;5219916;28;20432;-54
2022/05/27 02:37:07;;;;;;;15.33;13.37;;;13.90;99.90;;;;;;5211815;28;20450;-56
2022/05/27 02:39:38;;;;;;;15.60;13.97;;;13.90;99.90;;;;;;5199727;28;20833;-55
2022/05/27 02:42:44;;;;;;;23.63;13.60;;;13.80;99.90;;;;;;5213173;28;20417;-54
2022/05/27 02:45:53;;;;;;;27.07;14.33;;;13.90;99.90;;;;;;5207529;28;20470;-55
2022/05/27 02:48:39;;;;;;;13.93;12.27;;;13.90;99.90;;;;;;5194116;28;20467;-54
2022/05/27 02:51:24;;;;;;;22.33;13.80;;;13.90;99.90;;;;;;5216147;28;20410;-55
2022/05/27 02:54:05;;;;;;;18.00;14.50;;;13.90;99.90;;;;;;5210259;28;20445;-55
2022/05/27 02:57:03;;;;;;;15.53;12.30;;;13.90;99.90;;;;;;5200329;28;20413;-55
2022/05/27 02:59:36;;;;;;;15.07;12.20;;;13.90;99.90;;;;;;5212199;28;20445;-55
2022/05/27 03:02:13;;;;;;;15.73;11.73;;;13.90;99.90;;;;;;5217408;28;20940;-55
2022/05/27 03:04:48;;;;;;;15.83;11.50;;;13.80;99.90;;;;;;5206425;28;20453;-55
2022/05/27 03:07:48;;;;;;;12.70;11.50;;;13.80;99.90;;;;;;5204626;28;20479;-56
2022/05/27 03:10:39;;;;;;;13.10;10.53;;;13.80;99.90;;;;;;5193435;28;21013;-55
2022/05/27 03:13:52;;;;;;;12.57;10.37;;;13.70;99.90;;;;;;5207115;28;20453;-55
2022/05/27 03:16:38;;;;;;;15.97;9.60;;;13.70;99.90;;;;;;5195138;28;20442;-56
2022/05/27 03:19:32;;;;;;;13.60;10.37;;;13.70;99.90;;;;;;5209613;28;20511;-55
2022/05/27 03:22:33;;;;;;;10.93;9.83;;;13.70;99.90;;;;;;5200201;28;20446;-55
2022/05/27 03:25:39;;;;;;;12.57;10.60;;;13.70;99.90;;;;;;5187611;28;20435;-56
2022/05/27 03:28:37;;;;;;;12.33;9.00;;;13.70;99.90;;;;;;5210316;28;20823;-56
2022/05/27 03:31:26;;;;;;;10.67;9.10;;;13.70;99.90;;;;;;5202272;28;20432;-55
2022/05/27 03:34:17;;;;;;;10.00;9.03;;;13.60;99.90;;;;;;5200023;28;20491;-55
2022/05/27 03:36:51;;;;;;;15.13;10.83;;;13.60;99.90;;;;;;5206232;28;20426;-55
2022/05/27 03:39:27;;;;;;;10.33;9.43;;;13.60;99.90;;;;;;5206393;28;20481;-55
2022/05/27 03:42:04;;;;;;;10.30;9.23;;;13.60;99.90;;;;;;5224700;28;20808;-56
2022/05/27 03:44:35;;;;;;;11.40;9.20;;;13.60;99.90;;;;;;5217115;28;20586;-55
2022/05/27 03:47:05;;;;;;;14.63;9.97;;;13.60;99.90;;;;;;5198835;28;20556;-54
2022/05/27 03:49:36;;;;;;;10.00;8.57;;;13.60;99.90;;;;;;5205352;28;20210;-55
2022/05/27 03:52:11;;;;;;;10.17;9.10;;;13.60;99.90;;;;;;5217173;28;20655;-55
2022/05/27 03:54:42;;;;;;;10.73;8.60;;;13.60;99.90;;;;;;5216502;28;20275;-54
2022/05/27 03:57:12;;;;;;;8.90;7.90;;;13.70;99.90;;;;;;5212731;28;20508;-55
2022/05/27 03:59:43;;;;;;;8.63;7.83;;;13.60;99.90;;;;;;5211648;28;20567;-56
2022/05/27 04:02:13;;;;;;;9.63;8.47;;;13.60;99.90;;;;;;5214120;28;20183;-56
2022/05/27 04:04:44;;;;;;;19.20;8.17;;;13.70;99.90;;;;;;5222091;28;20588;-56
2022/05/27 04:07:15;;;;;;;11.10;8.77;;;13.70;99.90;;;;;;5204671;28;20195;-55
2022/05/27 04:09:45;;;;;;;18.37;8.87;;;13.80;99.90;;;;;;5208545;28;20209;-55
2022/05/27 04:12:16;;;;;;;14.17;8.73;;;13.80;99.90;;;;;;5213385;28;20269;-56
2022/05/27 04:14:53;;;;;;;8.53;7.77;;;13.80;99.90;;;;;;5204929;28;20179;-56
2022/05/27 04:17:32;;;;;;;10.00;8.50;;;13.90;99.90;;;;;;5198761;28;20187;-56
2022/05/27 04:20:07;;;;;;;10.50;7.03;;;13.90;99.90;;;;;;5214287;28;20477;-55
2022/05/27 04:22:38;;;;;;;13.80;8.00;;;13.90;99.90;;;;;;5224170;28;20433;-54
2022/05/27 04:25:10;;;;;;;10.83;8.33;;;14.00;99.90;;;;;;5224968;28;20433;-55
2022/05/27 04:27:41;;;;;;;12.90;8.97;;;14.00;99.90;;;;;;5214173;28;20481;-55
2022/05/27 04:30:12;;;;;;;13.33;9.43;;;14.10;99.90;;;;;;5221987;28;20453;-56
2022/05/27 04:32:43;;;;;;;11.70;8.90;;;14.10;99.90;;;;;;5223554;28;20171;-55
2022/05/27 04:35:13;;;;;;;9.63;8.67;;;14.10;99.90;;;;;;5214862;28;20483;-56
2022/05/27 04:37:44;;;;;;;15.07;11.17;;;14.20;99.90;;;;;;5208012;28;20184;-57
2022/05/27 04:40:14;;;;;;;10.23;8.13;;;14.20;99.90;;;;;;5209188;28;20274;-55
2022/05/27 04:42:45;;;;;;;10.43;8.10;;;14.30;99.90;;;;;;5221028;28;20635;-56
2022/05/27 04:45:15;;;;;;;10.87;8.70;;;14.30;99.90;;;;;;5223793;28;20660;-55
2022/05/27 04:47:46;;;;;;;12.20;7.90;;;14.40;99.90;;;;;;5222299;28;20199;-55
2022/05/27 04:50:18;;;;;;;11.27;8.17;;;14.40;99.90;;;;;;5216953;28;20186;-56
2022/05/27 04:52:48;;;;;;;16.70;7.77;;;14.50;99.90;;;;;;5218425;28;20182;-56
2022/05/27 04:55:19;;;;;;;7.60;6.90;;;14.50;99.90;;;;;;5200072;28;20981;-56
2022/05/27 04:57:53;;;;;;;11.77;7.30;;;14.50;99.90;;;;;;5202962;28;20190;-56
2022/05/27 05:00:27;;;;;;;9.20;7.47;;;14.50;99.90;;;;;;5210566;28;20179;-55
2022/05/27 05:02:58;;;;;;;10.60;7.17;;;14.50;99.90;;;;;;5226353;28;20755;-56
2022/05/27 05:05:31;;;;;;;13.37;7.97;;;14.50;99.90;;;;;;5216348;28;20472;-56
2022/05/27 05:08:06;;;;;;;9.60;7.20;;;14.50;99.90;;;;;;5200280;28;20586;-56
2022/05/27 05:10:36;;;;;;;15.73;7.70;;;14.60;99.90;;;;;;5202827;28;20422;-57
2022/05/27 05:13:07;;;;;;;11.80;7.20;;;14.60;99.90;;;;;;5217053;28;20423;-56
2022/05/27 05:15:39;;;;;;;11.50;6.80;;;14.60;99.90;;;;;;5214187;28;20850;-56
2022/05/27 05:18:09;;;;;;;11.33;7.97;;;14.60;99.90;;;;;;5205337;28;20453;-55
2022/05/27 05:20:40;;;;;;;14.93;7.67;;;14.50;99.90;;;;;;5220594;28;20753;-56
2022/05/27 05:23:10;;;;;;;13.63;7.90;;;14.50;99.90;;;;;;5215969;28;20191;-57
2022/05/27 05:25:41;;;;;;;12.50;8.93;;;14.50;99.90;;;;;;5209893;28;20650;-56
2022/05/27 05:28:11;;;;;;;12.20;7.90;;;14.40;99.90;;;;;;5220088;28;20680;-56
2022/05/27 05:30:42;;;;;;;13.17;9.10;;;14.30;99.90;;;;;;5206085;28;20269;-54
2022/05/27 05:33:12;;;;;;;15.63;8.97;;;14.20;99.90;;;;;;5218180;28;20345;-55
2022/05/27 05:35:43;;;;;;;11.37;7.83;;;14.20;99.90;;;;;;5212762;28;20183;-56
2022/05/27 05:40:47;;;;;;;6.87;4.90;;;14.00;99.90;;;;;;5194896;28;20220;-51
2022/05/27 05:43:18;;;;;;;4.43;4.00;;;13.80;99.90;;;;;;5203173;28;20434;-53
2022/05/27 05:45:49;;;;;;;13.40;5.00;;;13.60;99.90;;;;;;5183627;28;20180;-52
2022/05/27 05:48:19;;;;;;;9.73;4.23;;;13.50;99.90;;;;;;5206930;28;20294;-51
2022/05/27 05:50:50;;;;;;;5.17;4.20;;;13.40;99.90;;;;;;5201461;28;20194;-53
2022/05/27 05:53:21;;;;;;;4.13;3.73;;;13.40;99.90;;;;;;5199582;28;20263;-51
2022/05/27 05:55:51;;;;;;;5.83;3.90;;;13.40;99.90;;;;;;5196991;28;20644;-53
2022/05/27 05:58:22;;;;;;;3.60;3.27;;;13.40;99.90;;;;;;5194878;28;20185;-52
2022/05/27 06:00:53;;;;;;;4.60;3.17;;;13.40;99.90;;;;;;5201234;28;20606;-53
2022/05/27 06:03:23;;;;;;;2.80;2.60;;;13.40;99.90;;;;;;5191016;28;20263;-50
2022/05/27 06:05:54;;;;;;;6.87;2.53;;;13.40;99.90;;;;;;5197481;28;20648;-51
2022/05/27 06:08:24;;;;;;;7.40;3.13;;;13.50;99.90;;;;;;5182993;28;20212;-51
2022/05/27 06:10:55;;;;;;;8.43;3.03;;;13.50;99.90;;;;;;5202872;28;20206;-52
2022/05/27 06:13:26;;;;;;;3.90;3.10;;;13.50;99.90;;;;;;5194473;28;20674;-52
2022/05/27 06:15:57;;;;;;;4.73;2.97;;;13.50;99.90;;;;;;5203160;28;20176;-52
2022/05/27 06:18:27;;;;;;;3.67;3.30;;;13.50;99.90;;;;;;5198165;28;20488;-56
2022/05/27 06:20:59;;;;;;;8.23;4.40;;;13.50;99.90;;;;;;5205804;28;20188;-51
2022/05/27 06:23:29;;;;;;;4.67;2.80;;;13.60;99.90;;;;;;5203576;28;20261;-51
2022/05/27 06:26:06;;;;;;;4.97;3.63;;;14.00;99.90;;;;;;5184436;28;20438;-51
2022/05/27 06:34:23;;;;;;;8.70;2.77;;;15.60;99.90;;;;;;5201487;28;20490;-52
2022/05/27 06:36:59;;;;;;;8.67;2.50;;;15.60;99.90;;;;;;5198708;28;20553;-51
2022/05/27 06:39:32;;;;;;;2.70;2.50;;;15.50;99.90;;;;;;5201625;28;20461;-55
2022/05/27 06:42:08;;;;;;;3.33;2.70;;;15.30;99.90;;;;;;5190640;28;20446;-51
2022/05/27 06:44:39;;;;;;;6.23;2.43;;;15.40;99.90;;;;;;5176357;28;20438;-52
2022/05/27 06:47:10;;;;;;;6.80;2.97;;;15.90;99.90;;;;;;5205349;28;20438;-50
2022/05/27 06:49:44;;;;;;;3.53;2.73;;;16.30;99.90;;;;;;5204880;28;20199;-52
2022/05/27 06:52:15;;;;;;;11.80;2.93;;;17.10;99.90;;;;;;5203849;28;20211;-54
2022/05/27 06:54:46;;;;;;;5.10;2.50;;;17.60;99.90;;;;;;5205562;28;20450;-51
2022/05/27 06:57:16;;;;;;;7.03;2.40;;;17.90;99.90;;;;;;5204698;28;20176;-52
2022/05/27 06:59:47;;;;;;;6.77;1.97;;;18.30;99.90;;;;;;5196851;28;20207;-51
2022/05/27 07:02:19;;;;;;;3.60;2.40;;;18.60;99.90;;;;;;5177121;28;20185;-50
2022/05/27 07:04:49;;;;;;;4.43;2.50;;;18.80;99.90;;;;;;5204963;28;20255;-50
2022/05/27 07:07:25;;;;;;;3.87;1.47;;;19.10;99.90;;;;;;5187301;28;21092;-51
2022/05/27 07:09:56;;;;;;;4.70;2.20;;;19.70;99.90;;;;;;5187140;28;20665;-57
2022/05/27 07:12:27;;;;;;;3.70;2.20;;;20.70;97.60;;;;;;5184335;28;20487;-57
2022/05/27 07:14:58;;;;;;;6.57;2.53;;;21.20;95.40;;;;;;5196701;28;20229;-56
2022/05/27 07:17:28;;;;;;;4.13;1.73;;;21.90;91.80;;;;;;5194336;28;20434;-56
2022/05/27 07:20:01;;;;;;;1.80;1.70;;;22.60;84.50;;;;;;5188115;28;20199;-55
2022/05/27 07:22:31;;;;;;;2.23;1.83;;;23.30;74.80;;;;;;5204952;28;20587;-55
2022/05/27 07:25:02;;;;;;;7.10;2.87;;;24.10;68.70;;;;;;5179109;28;20515;-56
2022/05/27 07:27:32;;;;;;;6.87;1.83;;;24.80;59.00;;;;;;5204359;28;20222;-57
2022/05/27 07:30:03;;;;;;;5.97;2.83;;;24.50;56.70;;;;;;5181741;28;20215;-55
2022/05/27 07:32:35;;;;;;;5.60;1.70;;;24.30;57.00;;;;;;5179372;28;20179;-56
2022/05/27 07:35:07;;;;;;;4.73;1.77;;;23.90;56.20;;;;;;5195618;28;20207;-57
2022/05/27 07:37:38;;;;;;;8.00;2.23;;;23.80;56.10;;;;;;5186497;28;20443;-57
2022/05/27 07:40:09;;;;;;;6.70;2.60;;;23.70;56.20;;;;;;5195575;28;20481;-56
2022/05/27 07:42:41;;;;;;;2.17;1.70;;;23.50;55.50;;;;;;5203004;28;20176;-57
2022/05/27 07:45:13;;;;;;;2.70;1.80;;;23.10;55.70;;;;;;5185373;28;20442;-56
2022/05/27 07:47:44;;;;;;;2.47;2.30;;;22.40;57.70;;;;;;5186462;28;20488;-56
2022/05/27 07:50:15;;;;;;;4.83;1.83;;;21.20;59.70;;;;;;5181795;28;20450;-56
2022/05/27 07:52:49;;;;;;;3.33;1.50;;;20.10;60.10;;;;;;5198033;28;20640;-57
2022/05/27 07:55:20;;;;;;;1.90;1.23;;;19.70;59.70;;;;;;5201592;28;20230;-57
2022/05/27 07:57:51;;;;;;;5.10;1.60;;;20.20;58.80;;;;;;5193237;28;20451;-56
2022/05/27 08:00:27;;;;;;;2.53;1.60;;;20.40;55.60;;;;;;5193142;28;20235;-56
2022/05/27 08:02:57;;;;;;;1.63;1.43;;;20.40;52.40;;;;;;5183240;28;20451;-57
2022/05/27 08:05:30;;;;;;;3.90;1.57;;;20.60;51.00;;;;;;5205274;28;20448;-55
2022/05/27 08:08:01;;;;;;;5.83;2.07;;;20.60;48.10;;;;;;5198158;28;20226;-57
2022/05/27 08:10:35;;;;;;;2.60;1.37;;;20.70;46.50;;;;;;5182300;28;20521;-57
2022/05/27 08:13:05;;;;;;;3.10;1.07;;;20.50;45.30;;;;;;5182661;28;20425;-57
2022/05/27 08:15:36;;;;;;;2.37;1.10;;;21.20;45.40;;;;;;5178238;28;20411;-58
2022/05/27 08:18:07;;;;;;;5.30;0.93;;;22.10;41.40;;;;;;5205028;28;20261;-58
2022/05/27 08:20:42;;;;;;;4.30;1.73;;;22.40;41.20;;;;;;5185120;28;20442;-57
2022/05/27 08:23:13;;;;;;;10.20;1.60;;;22.40;40.50;;;;;;5187952;28;20187;-56
2022/05/27 08:25:44;;;;;;;4.33;1.27;;;22.10;41.20;;;;;;5203584;28;20433;-54
2022/05/27 08:28:14;;;;;;;2.47;1.57;;;21.90;40.60;;;;;;5203263;28;20208;-57
2022/05/27 08:30:45;;;;;;;3.00;1.30;;;22.00;41.80;;;;;;5197910;28;20211;-57
2022/05/27 08:33:16;;;;;;;3.40;1.40;;;23.00;41.40;;;;;;5178703;28;20222;-55
2022/05/27 08:38:35;;;;;;;5.17;1.70;;;22.90;40.30;;;;;;5204824;28;20261;-56
2022/05/27 08:41:43;;;;;;;5.23;1.80;;;22.50;41.70;;;;;;5202842;28;20829;-55
2022/05/27 08:44:25;;;;;;;11.03;2.70;;;20.90;42.10;;;;;;5194758;28;20595;-57
2022/05/27 08:47:14;;;;;;;3.80;1.87;;;20.20;44.30;;;;;;5179287;28;20951;-55
2022/05/27 08:49:48;;;;;;;5.63;1.63;;;19.80;45.40;;;;;;5186360;28;20455;-56
2022/05/27 08:52:40;;;;;;;7.33;2.10;;;19.10;45.50;;;;;;5197512;28;20780;-58
2022/05/27 09:01:34;;;;;;;7.50;2.07;;;18.00;48.60;;;;;;5193931;28;20497;-57
2022/05/27 09:04:11;;;;;;;3.67;1.40;;;18.20;47.20;;;;;;5186037;28;20461;-57
2022/05/27 09:06:47;;;;;;;6.00;1.77;;;18.20;47.30;;;;;;5197496;28;20409;-55
2022/05/27 09:09:26;;;;;;;3.73;1.60;;;18.10;45.10;;;;;;5206522;28;20800;-56
2022/05/27 09:12:34;;;;;;;4.67;1.67;;;18.30;45.10;;;;;;5190202;28;21015;-57
2022/05/27 09:15:56;;;;;;;4.27;1.93;;;18.50;44.70;;;;;;5180598;28;20438;-57
2022/05/27 09:18:43;;;;;;;2.40;1.70;;;18.70;43.80;;;;;;5188201;28;20470;-56
2022/05/27 09:21:21;;;;;;;3.07;1.53;;;18.70;43.80;;;;;;5197111;28;20441;-56
2022/05/27 09:24:06;;;;;;;4.63;1.80;;;18.60;43.40;;;;;;5200642;28;20993;-56
2022/05/27 09:26:45;;;;;;;6.73;2.13;;;18.00;42.70;;;;;;5190040;28;20437;-56
2022/05/27 09:29:40;;;;;;;5.33;1.67;;;17.80;43.90;;;;;;5202708;28;20507;-56
2022/05/27 09:32:35;;;;;;;2.70;1.90;;;17.80;44.50;;;;;;5184831;28;20533;-56
2022/05/27 09:35:10;;;;;;;3.60;1.73;;;18.00;45.00;;;;;;5198641;28;20439;-55
2022/05/27 09:37:45;;;;;;;9.33;1.90;;;18.40;45.00;;;;;;5204467;28;20489;-57
2022/05/27 09:40:30;;;;;;;4.37;2.13;;;18.50;44.50;;;;;;5207246;28;20488;-55
2022/05/27 09:43:36;;;;;;;8.30;2.40;;;18.40;44.40;;;;;;5197679;28;20438;-57
2022/05/27 09:46:11;;;;;;;11.63;2.00;;;18.30;45.00;;;;;;5198462;28;20928;-57
2022/05/27 09:48:42;;;;;;;5.00;2.13;;;18.20;45.90;;;;;;5189954;28;20572;-55
2022/05/27 09:51:16;;;;;;;6.60;2.23;;;18.30;45.30;;;;;;5176371;28;20422;-55
2022/05/27 09:53:51;;;;;;;7.10;2.43;;;18.30;45.90;;;;;;5205588;28;20438;-57
2022/05/27 09:56:40;;;;;;;4.00;1.97;;;18.50;45.10;;;;;;5189691;28;20437;-56
2022/05/27 09:59:32;;;;;;;4.33;1.70;;;18.70;45.50;;;;;;5182626;28;20471;-54
2022/05/27 10:02:21;;;;;;;2.00;1.70;;;18.70;44.30;;;;;;5185314;28;20457;-53
2022/05/27 10:05:06;;;;;;;4.83;1.50;;;18.60;44.50;;;;;;5193648;28;20783;-51
2022/05/27 10:07:42;;;;;;;5.40;2.60;;;18.70;44.70;;;;;;5203765;28;20467;-53
2022/05/27 10:10:28;;;;;;;6.60;2.13;;;19.00;45.10;;;;;;5202672;28;20434;-54
2022/05/27 10:13:23;;;;;;;7.83;2.10;;;19.10;44.40;;;;;;5198336;28;20499;-52
2022/05/27 10:16:03;;;;;;;1.83;1.73;;;18.70;44.40;;;;;;5199220;28;20497;-52
2022/05/27 10:18:34;;;;;;;4.97;1.23;;;18.20;45.40;;;;;;5205954;28;20462;-54
2022/05/27 10:21:11;;;;;;;9.47;2.10;;;17.90;44.70;;;;;;5189434;28;20453;-52
2022/05/27 10:23:45;;;;;;;6.73;2.17;;;17.70;44.80;;;;;;5201061;28;20187;-52
2022/05/27 10:26:31;;;;;;;5.50;2.10;;;17.80;45.00;;;;;;5182172;28;20493;-54
2022/05/27 10:29:10;;;;;;;9.30;2.93;;;17.90;46.20;;;;;;5186686;28;20525;-51
2022/05/27 10:31:55;;;;;;;4.30;1.90;;;18.00;46.40;;;;;;5202226;28;20437;-53
2022/05/27 10:34:46;;;;;;;3.13;1.80;;;18.20;45.40;;;;;;5195999;28;20441;-53
2022/05/27 10:37:28;;;;;;;2.10;2.00;;;18.10;45.20;;;;;;5194280;28;20425;-51
2022/05/27 10:40:06;;;;;;;7.03;2.63;;;18.00;45.80;;;;;;5207443;28;20460;-51
2022/05/27 10:42:53;;;;;;;6.47;2.60;;;17.90;45.20;;;;;;5185181;28;20542;-55
2022/05/27 10:45:43;;;;;;;10.97;4.47;;;17.60;45.20;;;;;;5192651;28;20749;-52
2022/05/27 10:48:38;;;;;;;10.67;5.00;;;17.60;46.70;;;;;;5205310;28;20489;-53
2022/05/27 10:51:28;;;;;;;8.50;5.20;;;17.70;47.10;;;;;;5184912;28;20449;-50
2022/05/27 10:54:19;;;;;;;7.00;2.70;;;17.80;47.00;;;;;;5201972;28;20987;-52
2022/05/27 11:03:14;;;;;;;4.37;1.87;;;18.10;47.40;;;;;;5200301;28;20460;-52
2022/05/27 11:06:14;;;;;;;6.80;1.87;;;18.70;46.00;;;;;;5199787;28;20440;-51
2022/05/27 11:09:14;;;;;;;4.00;2.00;;;19.20;44.20;;;;;;5179118;28;20482;-52
2022/05/27 11:12:01;;;;;;;9.77;3.07;;;19.50;43.20;;;;;;5196544;28;20489;-52
2022/05/27 11:17:31;;;;;;;6.90;4.57;;;19.80;41.90;;;;;;5202536;28;20441;-52
2022/05/27 11:20:12;;;;;;;5.17;2.93;;;19.40;41.80;;;;;;5200051;28;20455;-52
2022/05/27 11:23:33;;;;;;;7.23;3.10;;;19.00;43.30;;;;;;5190892;28;20176;-52
2022/05/27 11:26:17;;;;;;;8.23;3.43;;;18.90;43.20;;;;;;5184297;28;20926;-51
2022/05/27 11:29:02;;;;;;;10.43;4.00;;;18.80;42.70;;;;;;5199363;28;20511;-53
2022/05/27 11:31:55;;;;;;;5.50;2.60;;;18.70;42.00;;;;;;5197167;28;20452;-54
2022/05/27 11:34:30;;;;;;;9.80;5.33;;;18.50;41.70;;;;;;5198063;28;20434;-52
2022/05/27 11:37:25;;;;;;;15.20;5.30;;;18.30;42.40;;;;;;5176540;28;20454;-53
2022/05/27 11:40:22;;;;;;;8.40;3.63;;;18.50;43.00;;;;;;5240524;22;20500;-58
2022/05/27 11:43:29;;;;;;;5.87;4.37;;;18.70;42.90;;;;;;5227353;28;20440;-59
2022/05/27 11:46:34;;;;;;;6.47;2.77;;;18.80;42.80;;;;;;5246264;28;20740;-60
2022/05/27 11:49:23;;;;;;;5.60;3.03;;;19.10;42.20;;;;;;5246094;28;21014;-59
2022/05/27 11:52:13;;;;;;;4.70;2.60;;;19.10;42.40;;;;;;5236126;28;20948;-58
2022/05/27 11:55:41;;;;;;;5.23;2.17;;;18.80;41.50;;;;;;5226870;28;20505;-59
2022/05/27 11:58:21;;;;;;;18.70;3.63;;;18.30;42.80;;;;;;5133157;28;20429;-59
2022/05/27 12:01:17;;;;;;;5.23;1.87;;;18.10;48.50;;;;;;5139377;28;20555;-60
2022/05/27 12:03:53;;;;;;;5.37;1.80;;;17.80;49.50;;;;;;5206527;28;20449;-59
2022/05/27 12:06:32;;;;;;;7.80;2.70;;;17.80;50.60;;;;;;5236532;28;20514;-57
2022/05/27 12:09:13;;;;;;;9.20;2.90;;;17.70;50.10;;;;;;5233614;28;20562;-60
2022/05/27 12:11:50;;;;;;;6.30;4.53;;;17.80;50.30;;;;;;5234430;28;20437;-59
2022/05/27 12:14:38;;;;;;;12.03;5.20;;;18.10;48.50;;;;;;5219492;28;20821;-59
2022/05/27 12:17:14;;;;;;;5.10;3.40;;;18.20;46.70;;;;;;5214557;28;20499;-59
2022/05/27 12:19:54;;;;;;;5.37;2.80;;;18.10;46.20;;;;;;5218567;28;20437;-60
2022/05/27 12:22:30;;;;;;;6.60;3.20;;;18.00;46.20;;;;;;5233810;28;20420;-58
2022/05/27 12:25:03;;;;;;;3.67;2.77;;;17.80;46.30;;;;;;5224292;28;20437;-57
2022/05/27 12:27:35;;;;;;;7.60;2.67;;;17.70;46.20;;;;;;5234457;28;20443;-58
2022/05/27 12:30:08;;;;;;;3.20;1.20;;;17.60;46.40;;;;;;5233489;28;20456;-58
2022/05/27 12:32:42;;;;;;;12.77;2.23;;;17.50;44.80;;;;;;5233793;28;20429;-59
2022/05/27 12:35:21;;;;;;;4.10;2.10;;;17.80;44.80;;;;;;5223449;28;20438;-59
2022/05/27 12:38:03;;;;;;;4.23;2.10;;;18.10;45.00;;;;;;5236225;28;20443;-59
2022/05/27 12:40:40;;;;;;;5.23;2.13;;;18.40;44.00;;;;;;5242172;28;20543;-60
2022/05/27 12:43:21;;;;;;;3.90;1.93;;;18.40;42.80;;;;;;5224495;28;20471;-60
2022/05/27 12:46:14;;;;;;;4.57;4.17;;;18.50;43.00;;;;;;5241129;28;20446;-57
2022/05/27 12:48:46;;;;;;;5.50;2.80;;;18.70;43.00;;;;;;5216940;28;20473;-59
2022/05/27 12:51:16;;;;;;;9.10;2.00;;;18.50;43.70;;;;;;5229342;28;20441;-58
2022/05/27 12:53:53;;;;;;;7.43;1.30;;;18.30;45.70;;;;;;5220754;28;20504;-59
2022/05/27 13:02:22;;;;;;;2.13;1.50;;;16.60;55.50;;;;;;5230271;28;20434;-58
2022/05/27 13:04:55;;;;;;;3.57;2.07;;;16.60;53.70;;;;;;5244628;28;20425;-57
2022/05/27 13:07:35;;;;;;;2.87;1.73;;;16.80;54.70;;;;;;5215395;28;20898;-59
2022/05/27 13:10:18;;;;;;;3.97;2.00;;;16.90;51.80;;;;;;5220441;28;20469;-59
2022/05/27 13:12:56;;;;;;;10.63;3.20;;;16.90;50.40;;;;;;5233324;28;20448;-59
2022/05/27 13:15:43;;;;;;;6.60;2.20;;;17.00;50.10;;;;;;5230413;28;20544;-58
2022/05/27 13:18:35;;;;;;;5.90;2.43;;;17.10;45.40;;;;;;5245701;28;20440;-59
2022/05/27 13:21:14;;;;;;;3.70;1.90;;;17.10;45.00;;;;;;5225718;28;20746;-59
2022/05/27 13:23:52;;;;;;;11.43;2.33;;;17.10;45.30;;;;;;5215025;28;20464;-58
2022/05/27 13:26:45;;;;;;;6.03;2.20;;;17.20;45.00;;;;;;5236245;28;20862;-58
2022/05/27 13:29:33;;;;;;;6.27;1.63;;;17.40;45.20;;;;;;5234593;28;20523;-58
2022/05/27 13:32:10;;;;;;;3.17;2.17;;;17.50;44.40;;;;;;5226008;28;20444;-59
2022/05/27 13:34:55;;;;;;;2.77;1.67;;;17.50;44.20;;;;;;5215159;28;20417;-58
2022/05/27 13:37:35;;;;;;;2.67;2.00;;;17.50;44.60;;;;;;5244527;28;20771;-58
2022/05/27 13:40:29;;;;;;;1.67;1.40;;;17.70;45.10;;;;;;5237876;28;20537;-58
2022/05/27 13:43:17;;;;;;;7.20;2.13;;;17.80;45.20;;;;;;5222930;28;20449;-58
2022/05/27 13:45:52;;;;;;;7.90;1.60;;;18.00;44.60;;;;;;5229697;28;20438;-62
2022/05/27 13:48:34;;;;;;;3.53;2.00;;;18.10;44.00;;;;;;5234720;28;20821;-57
2022/05/27 13:51:08;;;;;;;7.43;2.50;;;18.00;43.30;;;;;;5232111;28;20470;-59
2022/05/27 13:53:40;;;;;;;4.83;2.30;;;18.00;42.60;;;;;;5234340;28;20528;-59
2022/05/27 13:56:19;;;;;;;7.37;1.93;;;17.90;41.80;;;;;;5237381;28;20428;-59
2022/05/27 13:58:58;;;;;;;9.80;2.73;;;17.90;42.60;;;;;;5220021;28;20455;-60
2022/05/27 14:01:33;;;;;;;10.23;2.60;;;17.90;43.20;;;;;;5235127;28;20450;-59
2022/05/27 14:04:35;;;;;;;8.03;3.17;;;17.80;44.20;;;;;;5223362;28;20432;-59
2022/05/27 14:07:29;;;;;;;3.00;1.50;;;17.80;47.20;;;;;;5222733;28;20521;-58
2022/05/27 14:10:06;;;;;;;10.53;2.43;;;17.60;45.70;;;;;;5236178;28;20461;-59
2022/05/27 14:12:38;;;;;;;12.50;5.83;;;17.50;44.90;;;;;;5225710;28;20430;-60
2022/05/27 14:15:26;;;;;;;12.60;7.10;;;17.60;44.90;;;;;;5230054;28;20934;-59
2022/05/27 14:17:58;;;;;;;10.47;3.57;;;17.60;43.50;;;;;;5237401;28;20433;-58
2022/05/27 14:23:27;;;;;;;10.60;2.97;;;17.70;40.70;;;;;;5218366;28;20418;-60